YMA7002 YSTW-YMML
Flight info
| Callsign | YMA7002 |
|---|---|
| Flight time | N/A |
| Altitude | 20000 |
| Route | TW DCT PKS DCT ORINO DCT ARBEY |
| Aircraft | DH8D/M-SDE2E3FGRY/H |
Departure
| Time | N/A |
|---|---|
| Airport | Tamworth Airport (YSTW) |
Arrival
| Time | 2026-05-08 01:01 |
|---|---|
| Airport | Melbourne Airport (YMML) |
| Time | Latitude | Longitude | Altitude | Speed | Heading |
|---|---|---|---|---|---|
| 2026-05-08 00:38 | -36.45630 | 145.03934 | 20051 ft | 304 kts | 221° |
| 2026-05-08 00:39 | -36.47193 | 145.02122 | 20051 ft | 304 kts | 221° |
| 2026-05-08 00:39 | -36.48739 | 145.00330 | 20051 ft | 304 kts | 221° |
| 2026-05-08 00:39 | -36.50264 | 144.98561 | 20047 ft | 304 kts | 221° |
| 2026-05-08 00:39 | -36.51815 | 144.96758 | 20042 ft | 306 kts | 221° |
| 2026-05-08 00:40 | -36.53381 | 144.94934 | 20046 ft | 310 kts | 222° |
| 2026-05-08 00:40 | -36.54956 | 144.93100 | 20051 ft | 313 kts | 222° |
| 2026-05-08 00:40 | -36.56560 | 144.91232 | 20063 ft | 316 kts | 222° |
| 2026-05-08 00:40 | -36.58171 | 144.89355 | 20075 ft | 317 kts | 222° |
| 2026-05-08 00:41 | -36.59884 | 144.87627 | 20052 ft | 319 kts | 211° |
| 2026-05-08 00:41 | -36.61966 | 144.86740 | 20103 ft | 320 kts | 196° |
| 2026-05-08 00:41 | -36.64137 | 144.86134 | 20089 ft | 320 kts | 194° |
| 2026-05-08 00:41 | -36.66313 | 144.85561 | 20081 ft | 320 kts | 194° |
| 2026-05-08 00:42 | -36.68520 | 144.84994 | 20078 ft | 320 kts | 194° |
| 2026-05-08 00:42 | -36.70683 | 144.84447 | 20077 ft | 320 kts | 194° |
| 2026-05-08 00:42 | -36.72870 | 144.83897 | 20077 ft | 320 kts | 194° |
| 2026-05-08 00:42 | -36.75058 | 144.83353 | 20077 ft | 320 kts | 194° |
| 2026-05-08 00:43 | -36.77248 | 144.82809 | 20078 ft | 319 kts | 193° |
| 2026-05-08 00:43 | -36.79402 | 144.82277 | 20078 ft | 319 kts | 193° |
| 2026-05-08 00:43 | -36.81588 | 144.81737 | 20078 ft | 319 kts | 193° |
| 2026-05-08 00:43 | -36.83773 | 144.81198 | 20078 ft | 319 kts | 193° |
| 2026-05-08 00:44 | -36.85944 | 144.80664 | 20081 ft | 319 kts | 193° |
| 2026-05-08 00:44 | -36.88118 | 144.80130 | 19855 ft | 317 kts | 193° |
| 2026-05-08 00:44 | -36.90264 | 144.79604 | 19528 ft | 318 kts | 193° |
| 2026-05-08 00:44 | -36.92437 | 144.79069 | 19156 ft | 318 kts | 193° |
| 2026-05-08 00:45 | -36.94614 | 144.78536 | 18774 ft | 318 kts | 193° |
| 2026-05-08 00:45 | -36.96761 | 144.78006 | 18393 ft | 318 kts | 193° |
| 2026-05-08 00:45 | -36.98940 | 144.77470 | 18002 ft | 317 kts | 193° |
| 2026-05-08 00:45 | -37.01103 | 144.76938 | 17605 ft | 316 kts | 193° |
| 2026-05-08 00:46 | -37.03253 | 144.76408 | 17220 ft | 314 kts | 193° |
| 2026-05-08 00:46 | -37.05386 | 144.75884 | 16840 ft | 312 kts | 193° |
| 2026-05-08 00:46 | -37.07499 | 144.75363 | 16418 ft | 309 kts | 193° |
| 2026-05-08 00:46 | -37.09601 | 144.74844 | 16027 ft | 306 kts | 193° |
| 2026-05-08 00:47 | -37.11669 | 144.74335 | 15656 ft | 303 kts | 193° |
| 2026-05-08 00:47 | -37.13740 | 144.73825 | 15288 ft | 301 kts | 193° |
| 2026-05-08 00:47 | -37.15788 | 144.73325 | 14919 ft | 299 kts | 193° |
| 2026-05-08 00:47 | -37.17871 | 144.73299 | 14566 ft | 302 kts | 176° |
| 2026-05-08 00:48 | -37.19915 | 144.73813 | 14201 ft | 302 kts | 173° |
| 2026-05-08 00:48 | -37.21984 | 144.74373 | 13841 ft | 301 kts | 172° |
| 2026-05-08 00:48 | -37.24002 | 144.74925 | 13490 ft | 295 kts | 172° |
| 2026-05-08 00:48 | -37.25968 | 144.75467 | 13116 ft | 286 kts | 172° |
| 2026-05-08 00:49 | -37.27875 | 144.75989 | 12762 ft | 271 kts | 173° |
| 2026-05-08 00:49 | -37.29658 | 144.76483 | 12455 ft | 252 kts | 173° |
| 2026-05-08 00:49 | -37.31302 | 144.76938 | 12168 ft | 236 kts | 173° |
| 2026-05-08 00:49 | -37.32896 | 144.77370 | 11898 ft | 232 kts | 174° |
| 2026-05-08 00:50 | -37.34466 | 144.77745 | 11623 ft | 229 kts | 176° |
| 2026-05-08 00:50 | -37.36041 | 144.78020 | 11348 ft | 226 kts | 178° |
| 2026-05-08 00:50 | -37.37584 | 144.78271 | 11078 ft | 224 kts | 178° |
| 2026-05-08 00:50 | -37.39136 | 144.78529 | 10807 ft | 223 kts | 178° |
| 2026-05-08 00:51 | -37.40677 | 144.78787 | 10545 ft | 230 kts | 178° |
| 2026-05-08 00:51 | -37.42336 | 144.79057 | 10264 ft | 251 kts | 177° |
| 2026-05-08 00:51 | -37.44107 | 144.79352 | 9948 ft | 264 kts | 177° |
| 2026-05-08 00:51 | -37.45913 | 144.79666 | 9618 ft | 260 kts | 176° |
| 2026-05-08 00:52 | -37.47686 | 144.80008 | 9300 ft | 254 kts | 175° |
| 2026-05-08 00:52 | -37.49397 | 144.80389 | 8996 ft | 248 kts | 175° |
| 2026-05-08 00:52 | -37.51072 | 144.80763 | 8700 ft | 243 kts | 175° |
| 2026-05-08 00:52 | -37.52732 | 144.81139 | 8407 ft | 239 kts | 175° |
| 2026-05-08 00:53 | -37.54357 | 144.81534 | 8031 ft | 242 kts | 171° |
| 2026-05-08 00:53 | -37.55802 | 144.82693 | 7679 ft | 258 kts | 138° |
| 2026-05-08 00:53 | -37.56520 | 144.84786 | 7398 ft | 273 kts | 107° |
| 2026-05-08 00:53 | -37.56684 | 144.87186 | 7079 ft | 276 kts | 99° |
| 2026-05-08 00:54 | -37.56781 | 144.89607 | 6743 ft | 276 kts | 99° |
| 2026-05-08 00:54 | -37.56877 | 144.91988 | 6410 ft | 271 kts | 99° |
| 2026-05-08 00:54 | -37.56979 | 144.94353 | 6081 ft | 267 kts | 100° |
| 2026-05-08 00:54 | -37.57084 | 144.96668 | 5759 ft | 264 kts | 100° |
| 2026-05-08 00:55 | -37.57195 | 144.98961 | 5433 ft | 262 kts | 101° |
| 2026-05-08 00:55 | -37.57628 | 145.01143 | 4802 ft | 257 kts | 128° |
| 2026-05-08 00:55 | -37.58889 | 145.02484 | 4500 ft | 222 kts | 167° |
| 2026-05-08 00:55 | -37.60302 | 145.02727 | 4276 ft | 197 kts | 185° |
| 2026-05-08 00:56 | -37.61611 | 145.02695 | 4045 ft | 178 kts | 192° |
| 2026-05-08 00:56 | -37.62794 | 145.02492 | 3762 ft | 165 kts | 195° |
| 2026-05-08 00:56 | -37.63905 | 145.02303 | 3428 ft | 157 kts | 194° |
| 2026-05-08 00:56 | -37.64959 | 145.02112 | 3064 ft | 151 kts | 196° |
| 2026-05-08 00:57 | -37.65976 | 145.01865 | 2646 ft | 145 kts | 206° |
| 2026-05-08 00:57 | -37.66826 | 145.01251 | 2202 ft | 141 kts | 220° |
| 2026-05-08 00:57 | -37.67247 | 145.00224 | 1710 ft | 141 kts | 268° |
| 2026-05-08 00:57 | -37.67053 | 144.98997 | 1275 ft | 139 kts | 275° |
| 2026-05-08 00:58 | -37.66893 | 144.97786 | 1360 ft | 153 kts | 271° |
| 2026-05-08 00:58 | -37.66765 | 144.96449 | 1627 ft | 153 kts | 273° |
| 2026-05-08 00:58 | -37.66684 | 144.95094 | 1727 ft | 155 kts | 268° |
| 2026-05-08 00:58 | -37.66650 | 144.93759 | 1743 ft | 154 kts | 268° |
| 2026-05-08 00:59 | -37.66587 | 144.92384 | 1552 ft | 155 kts | 271° |
| 2026-05-08 00:59 | -37.66513 | 144.91081 | 1466 ft | 147 kts | 271° |
| 2026-05-08 00:59 | -37.66465 | 144.89780 | 1240 ft | 144 kts | 270° |
| 2026-05-08 00:59 | -37.66422 | 144.88577 | 1010 ft | 132 kts | 271° |
| 2026-05-08 01:00 | -37.66364 | 144.87454 | 854 ft | 128 kts | 271° |
| 2026-05-08 01:00 | -37.66302 | 144.86357 | 672 ft | 121 kts | 271° |
| 2026-05-08 01:00 | -37.66239 | 144.85323 | 510 ft | 118 kts | 271° |
| 2026-05-08 01:00 | -37.66183 | 144.84305 | 419 ft | 112 kts | 271° |
| 2026-05-08 01:01 | -37.66153 | 144.83519 | 418 ft | 51 kts | 275° |
| 2026-05-08 01:01 | -37.66134 | 144.83168 | 415 ft | 29 kts | 271° |
| 2026-05-08 01:01 | -37.66175 | 144.82913 | 408 ft | 27 kts | 247° |
| 2026-05-08 01:01 | -37.66255 | 144.82729 | 400 ft | 20 kts | 232° |
| 2026-05-08 01:02 | -37.66369 | 144.82686 | 392 ft | 17 kts | 162° |
| 2026-05-08 01:02 | -37.66441 | 144.82800 | 388 ft | 18 kts | 94° |
| 2026-05-08 01:02 | -37.66456 | 144.82956 | 390 ft | 17 kts | 98° |
| 2026-05-08 01:02 | -37.66468 | 144.83102 | 394 ft | 15 kts | 92° |
| 2026-05-08 01:03 | -37.66477 | 144.83313 | 401 ft | 34 kts | 94° |
| 2026-05-08 01:03 | -37.66494 | 144.83624 | 407 ft | 36 kts | 94° |
| 2026-05-08 01:03 | -37.66516 | 144.83955 | 404 ft | 38 kts | 94° |
| 2026-05-08 01:03 | -37.66530 | 144.84274 | 399 ft | 34 kts | 84° |
| 2026-05-08 01:04 | -37.66496 | 144.84554 | 402 ft | 29 kts | 81° |
| 2026-05-08 01:04 | -37.66468 | 144.84795 | 407 ft | 26 kts | 83° |
| 2026-05-08 01:04 | -37.66450 | 144.84987 | 411 ft | 17 kts | 103° |
| 2026-05-08 01:04 | -37.66539 | 144.85059 | 411 ft | 14 kts | 173° |
| 2026-05-08 01:05 | -37.66627 | 144.85071 | 411 ft | 11 kts | 169° |
| 2026-05-08 01:05 | -37.66659 | 144.85123 | 411 ft | 9 kts | 81° |
| 2026-05-08 01:05 | -37.66656 | 144.85146 | 411 ft | 0 kts | 83° |